Time;durP1;ratioP1;P1;durP2;ratioP2;P2;SDS_P1;SDS_P2;PMS_P1;PMS_P2;Temp;Humidity;BMP_temperature;BMP_pressure;BME280_temperature;BME280_humidity;BME280_pressure;Samples;Min_cycle;Max_cycle;Signal;HPM_P1;HPM_P2
2022/08/17 00:00:46;;;;;;;;;22.25;20.75;;;;;21.63;67.41;100519.88;6321469;22;45694;-80
2022/08/17 00:03:21;;;;;;;;;22.00;19.75;;;;;21.69;67.35;100528.44;6337675;22;45362;-80
2022/08/17 00:05:55;;;;;;;;;19.00;19.00;;;;;21.66;67.83;100517.91;6340336;22;45212;-84
2022/08/17 00:08:24;;;;;;;;;25.50;23.75;;;;;21.66;67.70;100511.69;6315345;22;45197;-83
2022/08/17 00:10:50;;;;;;;;;17.50;17.50;;;;;21.67;67.85;100508.03;6341476;22;45405;-84
2022/08/17 00:13:30;;;;;;;;;19.00;18.50;;;;;21.60;67.75;100496.81;6315350;22;47660;-84
2022/08/17 00:16:06;;;;;;;;;19.00;18.25;;;;;21.74;68.30;100512.13;6342322;22;45121;-85
2022/08/17 00:18:32;;;;;;;;;24.50;22.25;;;;;21.75;67.45;100504.00;6314683;22;45278;-85
2022/08/17 00:20:59;;;;;;;;;22.25;20.00;;;;;21.71;67.93;100496.22;6343398;22;45416;-85
2022/08/17 00:23:25;;;;;;;;;25.25;22.00;;;;;21.69;67.50;100490.94;6343120;22;46391;-84
2022/08/17 00:25:51;;;;;;;;;21.50;21.00;;;;;21.76;67.82;100500.38;6314952;22;45309;-84
2022/08/17 00:28:17;;;;;;;;;19.75;19.00;;;;;21.77;67.48;100493.22;6344932;22;45387;-84
2022/08/17 00:30:45;;;;;;;;;23.00;22.25;;;;;21.77;67.38;100493.22;6318080;22;45160;-83
2022/08/17 00:33:17;;;;;;;;;18.25;17.00;;;;;21.74;67.33;100488.03;6319315;22;47233;-85
2022/08/17 00:35:44;;;;;;;;;19.50;18.75;;;;;21.71;67.29;100483.69;6347323;22;45101;-85
2022/08/17 00:38:11;;;;;;;;;20.50;18.75;;;;;21.67;67.44;100476.75;6345839;22;45139;-85
2022/08/17 00:40:44;;;;;;;;;18.25;17.00;;;;;21.76;67.14;100488.81;6345538;22;45288;-85
2022/08/17 00:43:21;;;;;;;;;20.75;19.00;;;;;21.75;67.43;100490.59;6316767;22;47243;-84
2022/08/17 00:45:48;;;;;;;;;17.75;17.25;;;;;21.65;67.39;100469.75;6344715;22;45163;-85
2022/08/17 00:48:14;;;;;;;;;18.50;16.50;;;;;21.69;67.54;100484.72;6315877;22;45213;-85
2022/08/17 00:50:48;;;;;;;;;20.00;19.25;;;;;21.69;67.75;100482.91;6344563;22;45314;-85
2022/08/17 00:53:14;;;;;;;;;16.50;15.75;;;;;21.66;67.95;100484.88;6342236;22;48420;-85
2022/08/17 00:55:42;;;;;;;;;21.00;18.75;;;;;21.61;67.53;100478.91;6316471;22;45656;-85
2022/08/17 00:58:09;;;;;;;;;23.75;22.25;;;;;21.62;67.82;100475.28;6316754;22;45392;-85
2022/08/17 01:00:39;;;;;;;;;22.00;21.25;;;;;21.67;67.78;100481.25;6315688;22;45184;-84
2022/08/17 01:03:10;;;;;;;;;22.00;20.25;;;;;21.63;67.94;100485.91;6342663;22;47372;-84
2022/08/17 01:05:37;;;;;;;;;17.75;17.00;;;;;21.61;68.08;100477.09;6343436;22;45392;-84
2022/08/17 01:08:05;;;;;;;;;20.25;19.50;;;;;21.66;68.11;100491.09;6342449;22;45429;-85
2022/08/17 01:10:46;;;;;;;;;24.50;19.50;;;;;21.65;68.08;100493.84;6342693;22;45439;-84
2022/08/17 01:13:12;;;;;;;;;22.50;21.50;;;;;21.59;68.24;100476.31;6316286;22;48521;-85
2022/08/17 01:15:45;;;;;;;;;18.75;17.00;;;;;21.68;67.96;100494.56;6343235;22;45406;-85
2022/08/17 01:18:12;;;;;;;;;15.25;13.25;;;;;21.62;67.46;100486.84;6314623;22;45280;-85
2022/08/17 01:20:42;;;;;;;;;19.00;17.25;;;;;21.61;68.04;100481.59;6315067;22;45357;-86
2022/08/17 01:23:08;;;;;;;;;16.25;15.50;;;;;21.67;67.91;100484.78;6316326;22;46990;-86
2022/08/17 01:25:34;;;;;;;;;15.75;15.75;;;;;21.70;67.84;100492.66;6319608;22;45240;-85
2022/08/17 01:27:59;;;;;;;;;19.50;17.50;;;;;21.66;67.93;100488.44;6319714;22;44680;-85
2022/08/17 01:30:25;;;;;;;;;19.00;17.00;;;;;21.68;67.92;100494.56;6317609;22;45208;-85
2022/08/17 01:32:50;;;;;;;;;17.50;17.25;;;;;21.64;67.89;100489.47;6316609;22;47919;-83
2022/08/17 01:35:16;;;;;;;;;18.00;17.25;;;;;21.67;67.84;100491.97;6342247;22;45213;-84
2022/08/17 01:37:42;;;;;;;;;21.00;18.00;;;;;21.59;67.81;100477.16;6342752;22;45259;-84
2022/08/17 01:40:22;;;;;;;;;17.00;16.75;;;;;21.63;67.79;100482.38;6315145;22;45261;-84
2022/08/17 01:42:58;;;;;;;;;19.00;19.00;;;;;21.55;67.81;100475.59;6315328;22;46354;-86
2022/08/17 01:45:30;;;;;;;;;15.50;14.00;;;;;21.59;68.05;100489.69;6315590;22;45743;-85
2022/08/17 01:47:56;;;;;;;;;21.25;21.25;;;;;21.53;67.77;100482.84;6342398;22;45370;-85
2022/08/17 01:50:28;;;;;;;;;21.75;16.75;;;;;21.56;67.66;100495.22;6345432;22;45326;-85
2022/08/17 01:53:11;;;;;;;;;19.75;18.25;;;;;21.46;67.97;100485.94;6344949;22;46546;-84
2022/08/17 01:55:51;;;;;;;;;20.50;18.75;;;;;21.51;68.58;100506.16;6315849;22;45347;-84
2022/08/17 01:58:17;;;;;;;;;19.50;19.50;;;;;21.49;68.34;100505.41;6342331;22;45429;-85
2022/08/17 02:00:45;;;;;;;;;19.50;18.25;;;;;21.47;68.45;100506.44;6344370;22;45232;-85
2022/08/17 02:03:11;;;;;;;;;25.50;24.00;;;;;21.33;68.59;100497.28;6316048;22;47459;-85
2022/08/17 02:05:37;;;;;;;;;21.75;19.25;;;;;21.41;68.41;100502.28;6317068;22;45144;-85
2022/08/17 02:08:03;;;;;;;;;22.00;20.00;;;;;21.45;68.79;100501.16;6344879;22;45469;-85
2022/08/17 02:10:31;;;;;;;;;21.25;19.25;;;;;21.41;68.53;100498.72;6344309;22;45470;-86
2022/08/17 02:12:57;;;;;;;;;23.25;21.00;;;;;21.40;68.96;100502.34;6316446;22;47074;-85
2022/08/17 02:15:23;;;;;;;;;17.00;17.00;;;;;21.41;68.54;100507.63;6317362;22;45221;-84
2022/08/17 02:17:49;;;;;;;;;21.25;20.25;;;;;21.30;68.85;100492.09;6319785;22;45232;-86
2022/08/17 02:20:14;;;;;;;;;19.00;18.75;;;;;21.25;68.93;100487.91;6343911;22;45109;-85
2022/08/17 02:22:43;;;;;;;;;17.00;17.00;;;;;21.31;68.66;100501.84;6317439;22;47026;-85
2022/08/17 02:25:15;;;;;;;;;20.50;19.50;;;;;21.27;68.74;100497.59;6316544;22;45389;-85
2022/08/17 02:27:40;;;;;;;;;20.75;20.00;;;;;21.21;68.90;100500.59;6342660;22;45307;-86
2022/08/17 02:30:09;;;;;;;;;22.25;21.25;;;;;21.27;69.02;100518.16;6316313;22;45441;-85
2022/08/17 02:32:35;;;;;;;;;22.25;21.25;;;;;21.27;68.75;100527.03;6315633;22;47118;-85
2022/08/17 02:35:02;;;;;;;;;18.00;18.00;;;;;21.27;68.26;100518.16;6314308;22;45793;-85
2022/08/17 02:37:29;;;;;;;;;20.25;18.75;;;;;21.20;68.82;100506.91;6315265;22;45339;-84
2022/08/17 02:39:55;;;;;;;;;15.25;14.00;;;;;21.28;68.36;100518.09;6314490;22;45250;-85
2022/08/17 02:42:28;;;;;;;;;14.50;13.25;;;;;21.23;68.30;100516.59;6314782;22;47047;-85
2022/08/17 02:44:53;;;;;;;;;17.50;15.00;;;;;21.32;67.95;100525.00;6315376;22;45760;-85
2022/08/17 02:47:19;;;;;;;;;20.25;17.50;;;;;21.24;67.99;100503.09;6344094;22;45160;-85
2022/08/17 02:49:44;;;;;;;;;17.50;17.25;;;;;21.39;67.74;100530.94;6314353;22;45748;-84
2022/08/17 02:52:10;;;;;;;;;15.00;14.00;;;;;21.42;67.75;100529.91;6313121;22;48338;-86
2022/08/17 02:54:36;;;;;;;;;17.25;15.50;;;;;21.45;67.28;100535.97;6316232;22;45098;-85
2022/08/17 02:57:02;;;;;;;;;16.00;15.50;;;;;21.46;67.08;100526.13;6344346;22;45129;-86
2022/08/17 02:59:28;;;;;;;;;16.00;14.75;;;;;21.46;66.76;100521.63;6317450;22;45184;-84
2022/08/17 03:01:54;;;;;;;;;19.25;18.25;;;;;21.53;67.24;100524.84;6321412;22;47869;-85
2022/08/17 03:04:19;;;;;;;;;13.50;12.75;;;;;21.54;66.55;100514.06;6346638;22;45368;-85
2022/08/17 03:06:45;;;;;;;;;16.00;14.50;;;;;21.59;66.54;100505.78;6317146;22;45378;-84
2022/08/17 03:09:10;;;;;;;;;15.50;14.00;;;;;21.69;66.36;100517.72;6345539;22;45247;-85
2022/08/17 03:11:36;;;;;;;;;15.50;15.25;;;;;21.74;66.51;100509.44;6317052;22;48262;-86
2022/08/17 03:14:01;;;;;;;;;18.00;16.75;;;;;21.74;66.30;100501.41;6341853;22;45602;-85
2022/08/17 03:16:26;;;;;;;;;17.75;15.00;;;;;21.80;66.51;100506.44;6315918;22;45334;-84
2022/08/17 03:18:53;;;;;;;;;15.50;13.75;;;;;21.77;66.76;100503.94;6340943;22;46091;-85
2022/08/17 03:21:19;;;;;;;;;20.25;19.00;;;;;21.73;66.97;100503.25;6340653;22;47098;-85
2022/08/17 03:23:44;;;;;;;;;24.50;21.50;;;;;21.66;67.07;100496.47;6342578;22;45132;-85
2022/08/17 03:26:10;;;;;;;;;19.00;18.50;;;;;21.68;67.65;100509.75;6343089;22;45227;-85
2022/08/17 03:28:39;;;;;;;;;18.50;17.50;;;;;21.68;67.51;100499.03;6314539;22;45390;-84
2022/08/17 03:31:06;;;;;;;;;17.00;17.00;;;;;21.58;67.84;100469.22;6340977;22;46855;-85
2022/08/17 03:33:31;;;;;;;;;21.75;19.00;;;;;21.71;67.98;100490.88;6342313;22;45222;-85
2022/08/17 03:35:57;;;;;;;;;23.75;20.25;;;;;21.71;67.94;100490.88;6314302;22;45383;-85
2022/08/17 03:38:23;;;;;;;;;25.00;21.25;;;;;21.70;67.99;100487.28;6342649;22;45179;-85
2022/08/17 03:40:50;;;;;;;;;20.50;19.75;;;;;21.67;67.69;100487.47;6340993;22;46830;-86
2022/08/17 03:43:15;;;;;;;;;19.50;18.00;;;;;21.63;67.50;100477.03;6314826;22;45177;-85
2022/08/17 03:57:12;;;;;;;;;18.00;16.50;;;;;21.63;67.19;100485.91;6276708;22;45307;-86
2022/08/17 03:59:39;;;;;;;;;19.00;18.50;;;;;21.68;67.38;100491.00;6249943;22;45414;-85
2022/08/17 04:02:15;;;;;;;;;19.75;18.75;;;;;21.67;67.21;100489.28;6306027;22;46985;-85
2022/08/17 04:04:40;;;;;;;;;18.75;17.50;;;;;21.70;67.25;100500.69;6343191;22;45380;-85
2022/08/17 04:07:07;;;;;;;;;16.75;16.75;;;;;21.69;66.86;100498.13;6345213;22;45343;-84
2022/08/17 04:09:33;;;;;;;;;18.00;17.00;;;;;21.72;67.40;100509.53;6344554;22;45175;-86
2022/08/17 04:11:58;;;;;;;;;16.50;14.50;;;;;21.57;67.41;100488.91;6316319;22;47958;-85
2022/08/17 04:14:25;;;;;;;;;19.00;19.00;;;;;21.61;67.42;100501.19;6342453;22;45104;-85
2022/08/17 04:16:50;;;;;;;;;20.00;19.00;;;;;21.64;67.46;100500.19;6344840;22;45269;-86
2022/08/17 04:19:16;;;;;;;;;19.00;18.25;;;;;21.63;67.34;100506.50;6341888;22;45361;-85
2022/08/17 04:21:41;;;;;;;;;19.50;19.50;;;;;21.59;67.29;100505.78;6342171;22;46896;-85
2022/08/17 04:24:07;;;;;;;;;18.50;16.50;;;;;21.59;67.47;100517.34;6315994;22;45165;-85
2022/08/17 04:26:33;;;;;;;;;19.00;18.50;;;;;21.63;67.38;100520.75;6344262;22;45258;-85
2022/08/17 04:28:59;;;;;;;;;20.00;15.50;;;;;21.54;67.38;100498.00;6341941;22;45387;-85
2022/08/17 04:31:25;;;;;;;;;20.00;19.00;;;;;21.65;67.29;100518.88;6343877;22;46106;-84
2022/08/17 04:33:51;;;;;;;;;20.25;18.75;;;;;21.59;67.55;100500.41;6315442;22;45359;-82
2022/08/17 04:36:17;;;;;;;;;18.50;15.50;;;;;21.62;67.09;100508.28;6344063;22;45347;-86
2022/08/17 04:38:44;;;;;;;;;21.75;19.50;;;;;21.53;67.24;100501.59;6315992;22;45245;-85
2022/08/17 04:43:57;;;;;;;;;17.00;17.00;;;;;21.57;67.02;100510.34;6342404;22;45302;-85
2022/08/17 04:46:34;;;;;;;;;20.00;19.00;;;;;21.47;66.77;100485.88;6314364;22;45268;-85
2022/08/17 04:49:03;;;;;;;;;15.25;15.25;;;;;21.56;66.89;100495.22;6314768;22;45368;-84
2022/08/17 04:51:30;;;;;;;;;21.75;18.25;;;;;21.50;66.56;100491.06;6315044;22;47001;-86
2022/08/17 04:54:00;;;;;;;;;22.25;20.00;;;;;21.52;66.87;100499.88;6315233;22;45273;-85
2022/08/17 04:56:27;;;;;;;;;20.50;18.00;;;;;21.49;66.72;100494.69;6315958;22;45267;-84
2022/08/17 04:58:57;;;;;;;;;18.25;18.25;;;;;21.49;66.89;100484.00;6343185;22;45306;-85
2022/08/17 05:01:26;;;;;;;;;23.25;20.75;;;;;21.62;66.68;100499.38;6343678;22;47038;-86
2022/08/17 05:03:55;;;;;;;;;18.25;17.25;;;;;21.51;66.79;100484.75;6314212;22;45256;-84
2022/08/17 05:06:21;;;;;;;;;17.25;17.25;;;;;21.65;66.89;100505.47;6315816;22;45292;-85
2022/08/17 05:08:47;;;;;;;;;22.00;19.50;;;;;21.67;67.21;100508.03;6343388;22;45380;-84
2022/08/17 05:11:13;;;;;;;;;20.50;19.00;;;;;21.65;67.15;100491.19;6343490;22;45236;-85
2022/08/17 05:13:38;;;;;;;;;22.50;20.75;;;;;21.56;66.79;100471.97;6314681;22;45386;-84
2022/08/17 05:16:04;;;;;;;;;21.75;21.50;;;;;21.59;66.89;100481.66;6341457;22;45267;-85
2022/08/17 05:18:30;;;;;;;;;20.25;19.50;;;;;21.56;66.82;100473.78;6340520;22;45427;-86
2022/08/17 05:20:56;;;;;;;;;23.50;21.25;;;;;21.58;66.98;100485.28;6314376;22;47264;-84
2022/08/17 05:23:24;;;;;;;;;20.75;20.50;;;;;21.64;67.06;100500.19;6342584;22;45250;-86
2022/08/17 05:25:51;;;;;;;;;18.25;15.75;;;;;21.62;67.07;100496.72;6314493;22;45291;-85
2022/08/17 05:28:19;;;;;;;;;19.75;19.75;;;;;21.74;67.03;100502.28;6340372;22;45413;-84
2022/08/17 05:30:46;;;;;;;;;20.50;18.50;;;;;21.63;66.69;100477.03;6341446;22;45438;-82
2022/08/17 05:33:17;;;;;;;;;24.25;24.00;;;;;21.75;67.30;100497.78;6313842;22;45592;-84
2022/08/17 05:35:48;;;;;;;;;18.25;17.25;;;;;21.73;67.17;100497.88;6314577;22;45208;-87
2022/08/17 05:38:15;;;;;;;;;22.25;21.00;;;;;21.76;66.92;100500.38;6341814;22;45109;-85
2022/08/17 05:40:42;;;;;;;;;20.00;18.75;;;;;21.77;66.81;100490.53;6341599;22;46352;-84
2022/08/17 05:43:15;;;;;;;;;21.25;20.50;;;;;21.73;66.84;100486.25;6341875;22;45176;-85
2022/08/17 05:46:06;;;;;;;;;21.50;20.25;;;;;21.88;66.68;100511.38;6315147;22;45198;-84
2022/08/17 05:48:36;;;;;;;;;23.00;22.25;;;;;21.91;66.75;100517.44;6314998;22;45502;-88
2022/08/17 05:51:13;;;;;;;;;20.25;20.25;;;;;21.99;66.32;100517.88;6344490;22;46817;-87
2022/08/17 05:53:56;;;;;;;;;19.50;18.50;;;;;22.05;66.23;100507.75;6317650;22;45426;-88
2022/08/17 05:56:42;;;;;;;;;23.25;22.00;;;;;22.05;66.01;100489.84;6342066;22;45283;-85
2022/08/17 05:59:32;;;;;;;;;21.75;19.25;;;;;22.16;66.23;100489.25;6342947;22;45155;-87
2022/08/17 06:02:33;;;;;;;;;21.50;20.50;;;;;22.14;66.06;100475.09;6342647;22;46488;-87
2022/08/17 06:05:07;;;;;;;;;23.00;23.00;;;;;22.26;66.20;100484.28;6332172;22;45276;-87
2022/08/17 06:07:51;;;;;;;;;14.00;14.00;;;;;22.31;65.74;100483.06;6345155;22;45172;-85
2022/08/17 06:10:27;;;;;;;;;25.00;21.00;;;;;22.35;65.95;100471.22;6344432;22;45273;-84
2022/08/17 06:13:30;;;;;;;;;25.00;22.25;;;;;22.34;65.88;100460.56;6315854;22;47279;-83
2022/08/17 06:16:03;;;;;;;;;25.25;23.25;;;;;22.46;65.85;100473.28;6215107;22;45631;-86
2022/08/17 06:18:37;;;;;;;;;23.25;22.50;;;;;22.42;65.97;100467.22;6214102;22;45233;-85
2022/08/17 06:21:10;;;;;;;;;25.00;24.00;;;;;22.49;66.05;100478.47;6341434;22;45460;-83
2022/08/17 06:23:48;;;;;;;;;31.50;27.50;;;;;22.57;66.42;100486.09;6311845;22;47148;-84
2022/08/17 06:26:20;;;;;;;;;26.00;24.25;;;;;22.54;66.01;100486.28;6340568;22;45228;-80
2022/08/17 06:28:51;;;;;;;;;23.75;21.75;;;;;22.66;66.32;100507.00;6341119;22;45380;-81
2022/08/17 06:31:31;;;;;;;;;25.75;24.25;;;;;22.66;65.24;100507.88;6341379;22;45202;-83
2022/08/17 06:33:59;;;;;;;;;20.75;20.75;;;;;22.64;64.74;100507.13;6340917;22;46537;-81
2022/08/17 06:36:31;;;;;;;;;17.50;17.50;;;;;22.74;64.83;100520.84;6312953;22;45319;-79
2022/08/17 06:38:56;;;;;;;;;23.25;21.25;;;;;22.77;64.81;100526.03;6311580;22;45472;-79
2022/08/17 06:41:27;;;;;;;;;20.25;20.25;;;;;22.79;64.15;100529.50;6340337;22;45325;-79
2022/08/17 06:44:14;;;;;;;;;26.75;22.50;;;;;22.81;63.46;100546.41;6341544;22;45572;-82
2022/08/17 06:46:51;;;;;;;;;21.25;20.75;;;;;22.77;63.64;100543.97;6313463;22;45323;-82
2022/08/17 06:49:29;;;;;;;;;19.00;18.75;;;;;22.78;63.08;100551.94;6341174;22;45361;-81
2022/08/17 06:52:13;;;;;;;;;22.75;20.50;;;;;22.80;63.29;100550.03;6341340;22;45402;-82
2022/08/17 06:54:52;;;;;;;;;25.00;22.00;;;;;22.83;63.52;100551.69;6340458;22;46311;-82
2022/08/17 06:57:24;;;;;;;;;21.50;21.50;;;;;22.84;63.03;100550.72;6312228;22;45875;-82
2022/08/17 06:59:58;;;;;;;;;23.25;20.25;;;;;22.86;62.86;100555.03;6338307;22;45277;-82
2022/08/17 07:02:47;;;;;;;;;20.25;20.00;;;;;22.85;62.51;100547.97;6311587;22;45561;-82
2022/08/17 07:05:17;;;;;;;;;24.75;21.50;;;;;22.88;62.65;100560.31;6341119;22;45317;-80
2022/08/17 07:08:03;;;;;;;;;19.75;19.75;;;;;22.88;62.38;100549.56;6339732;22;45306;-81
2022/08/17 07:10:56;;;;;;;;;20.75;19.50;;;;;22.87;62.53;100551.41;6336779;22;45331;-83
2022/08/17 07:13:40;;;;;;;;;22.50;21.00;;;;;22.89;62.36;100557.56;6335354;22;45775;-82
2022/08/17 07:16:15;;;;;;;;;21.75;20.75;;;;;22.94;62.32;100559.13;6340745;22;46593;-81
2022/08/17 07:18:42;;;;;;;;;20.00;18.50;;;;;23.00;62.31;100565.00;6340566;22;45265;-85
2022/08/17 07:21:27;;;;;;;;;23.00;20.50;;;;;22.97;62.36;100570.56;6311666;22;45358;-82
2022/08/17 07:24:19;;;;;;;;;14.50;13.25;;;;;22.97;61.95;100575.06;6337943;22;45334;-82
2022/08/17 07:26:48;;;;;;;;;20.75;19.25;;;;;22.99;62.23;100587.47;6322111;22;46967;-84
2022/08/17 07:29:17;;;;;;;;;20.50;18.25;;;;;22.98;62.08;100596.44;6341020;22;45168;-83
2022/08/17 07:31:43;;;;;;;;;18.50;18.50;;;;;22.93;61.66;100594.94;6338279;22;45397;-84
2022/08/17 07:34:13;;;;;;;;;17.75;17.75;;;;;22.84;61.87;100593.66;6340604;22;45236;-81
2022/08/17 07:36:42;;;;;;;;;24.75;20.50;;;;;22.86;62.07;100614.09;6311412;22;48172;-80
2022/08/17 07:39:09;;;;;;;;;18.50;18.50;;;;;22.82;61.92;100619.72;6341558;22;45225;-80
2022/08/17 07:41:40;;;;;;;;;20.75;19.50;;;;;22.78;62.07;100612.81;6340157;22;45342;-80
2022/08/17 07:44:14;;;;;;;;;19.50;19.00;;;;;22.79;61.78;100636.00;6340312;22;45549;-81
2022/08/17 07:49:40;;;;;;;;;21.50;20.50;;;;;22.62;62.37;100623.56;6341899;22;45303;-85
2022/08/17 07:52:29;;;;;;;;;20.25;18.50;;;;;22.55;61.72;100622.16;6312400;22;45430;-84
2022/08/17 07:54:55;;;;;;;;;17.00;16.25;;;;;22.51;62.45;100636.66;6342054;22;45311;-84
2022/08/17 07:57:22;;;;;;;;;24.00;21.50;;;;;22.48;62.41;100634.16;6340689;22;46978;-89
2022/08/17 08:00:00;;;;;;;;;20.50;19.50;;;;;22.45;62.92;100638.78;6317345;22;45011;-92
2022/08/17 08:02:39;;;;;;;;;15.50;13.50;;;;;22.49;63.17;100641.28;6321261;22;45446;-94
2022/08/17 08:05:26;;;;;;;;;20.25;19.75;;;;;22.49;63.10;100628.72;6320137;22;45180;-93
2022/08/17 08:07:53;;;;;;;;;16.25;16.25;;;;;22.54;62.66;100641.91;6317361;22;46162;-91
2022/08/17 08:10:34;;;;;;;;;20.25;19.00;;;;;22.58;63.21;100646.97;6314844;22;45543;-88
2022/08/17 08:13:13;;;;;;;;;23.00;20.50;;;;;22.63;63.19;100654.78;6317019;22;45199;-87
2022/08/17 08:15:47;;;;;;;;;23.75;19.50;;;;;22.53;63.38;100643.69;6344216;22;44727;-90
2022/08/17 08:18:44;;;;;;;;;17.75;17.25;;;;;22.56;62.78;100662.34;6340476;22;48201;-88
2022/08/17 08:21:34;;;;;;;;;21.25;20.00;;;;;22.48;63.02;100671.72;6314823;22;45365;-87
2022/08/17 08:24:18;;;;;;;;;20.75;20.00;;;;;22.42;63.45;100670.25;6314239;22;45195;-89
2022/08/17 08:26:55;;;;;;;;;21.50;19.25;;;;;22.32;63.46;100667.22;6314678;22;45446;-88
2022/08/17 08:29:45;;;;;;;;;22.25;19.00;;;;;22.42;63.43;100681.84;6345173;22;48082;-87
2022/08/17 08:32:26;;;;;;;;;19.25;18.75;;;;;22.42;63.55;100684.53;6319627;22;46129;-84
2022/08/17 08:35:00;;;;;;;;;19.50;18.50;;;;;22.33;63.61;100665.41;6341471;22;45209;-83
2022/08/17 08:37:38;;;;;;;;;22.50;20.75;;;;;22.40;64.09;100669.47;6341394;22;45173;-82
2022/08/17 08:40:37;;;;;;;;;21.25;21.25;;;;;22.57;63.85;100680.16;6313696;22;47390;-81
2022/08/17 08:43:48;;;;;;;;;22.00;21.50;;;;;22.68;63.42;100671.50;6341720;22;45353;-82
2022/08/17 08:46:28;;;;;;;;;21.50;20.75;;;;;22.77;63.59;100667.44;6290128;22;45481;-82
2022/08/17 08:49:15;;;;;;;;;21.50;19.75;;;;;22.87;63.30;100674.88;6312578;22;45209;-82
2022/08/17 08:51:55;;;;;;;;;20.75;20.00;;;;;22.93;62.70;100678.19;6313440;22;47140;-85
2022/08/17 08:54:46;;;;;;;;;20.50;20.50;;;;;22.95;62.50;100681.66;6313996;22;45289;-85
2022/08/17 08:57:24;;;;;;;;;20.25;19.00;;;;;22.96;62.14;100680.69;6313722;22;45341;-85
2022/08/17 09:00:14;;;;;;;;;18.00;17.75;;;;;22.95;61.90;100676.28;6313555;22;45546;-83
2022/08/17 09:02:45;;;;;;;;;21.25;19.75;;;;;22.94;61.90;100682.63;6313501;22;48219;-85
2022/08/17 09:05:28;;;;;;;;;19.25;19.00;;;;;22.87;61.70;100668.66;6314900;22;45769;-82
2022/08/17 09:08:37;;;;;;;;;21.00;18.75;;;;;22.80;62.15;100669.94;6341012;22;45325;-82
2022/08/17 09:11:04;;;;;;;;;20.25;18.75;;;;;22.82;62.46;100687.69;6217643;22;45297;-83
2022/08/17 09:13:36;;;;;;;;;23.00;22.00;;;;;22.77;62.82;100680.88;6315253;22;47285;-83
2022/08/17 09:16:28;;;;;;;;;24.25;21.75;;;;;22.75;62.48;100683.66;6315864;22;45394;-85
2022/08/17 09:19:01;;;;;;;;;19.25;18.25;;;;;22.73;62.75;100677.50;6342960;22;45429;-83
2022/08/17 09:21:34;;;;;;;;;21.00;20.00;;;;;22.76;62.31;100680.00;6312942;22;45706;-80
2022/08/17 09:24:11;;;;;;;;;24.00;22.25;;;;;22.72;62.74;100677.56;6341547;22;46543;-79
2022/08/17 09:26:45;;;;;;;;;19.50;19.25;;;;;22.69;62.55;100673.22;6312174;22;46031;-79
2022/08/17 09:29:14;;;;;;;;;20.50;20.50;;;;;22.71;62.38;100679.38;6312960;22;45175;-78
2022/08/17 09:31:56;;;;;;;;;20.50;17.75;;;;;22.73;62.73;100680.19;6339072;22;45399;-78
2022/08/17 09:34:33;;;;;;;;;19.00;17.25;;;;;22.74;62.35;100668.47;6340004;22;45226;-80
2022/08/17 09:36:59;;;;;;;;;21.25;19.50;;;;;22.74;62.41;100673.84;6340783;22;45315;-79
2022/08/17 09:39:42;;;;;;;;;23.75;20.75;;;;;22.75;62.56;100670.22;6313012;22;45355;-78
2022/08/17 09:42:34;;;;;;;;;20.00;18.75;;;;;22.74;62.73;100668.47;6342883;22;45196;-85
2022/08/17 09:45:49;;;;;;;;;24.00;20.75;;;;;22.71;62.84;100665.97;6315028;22;47569;-86
2022/08/17 09:48:36;;;;;;;;;22.75;21.75;;;;;22.79;63.50;100678.97;6341397;22;45758;-85
2022/08/17 09:51:23;;;;;;;;;18.75;18.25;;;;;22.85;62.77;100679.50;6342146;22;45143;-85
2022/08/17 09:53:49;;;;;;;;;22.50;21.50;;;;;22.88;63.22;100686.50;6342939;22;44786;-87
2022/08/17 09:56:43;;;;;;;;;20.75;20.25;;;;;22.77;62.93;100660.25;6313961;22;47840;-79
2022/08/17 09:59:10;;;;;;;;;26.00;25.00;;;;;22.84;62.80;100668.84;6340828;22;45379;-80
2022/08/17 10:01:45;;;;;;;;;22.25;21.00;;;;;22.85;63.30;100682.19;6312400;22;45336;-79
2022/08/17 10:04:35;;;;;;;;;25.75;25.25;;;;;22.88;63.06;100686.50;6340786;22;45302;-80
2022/08/17 10:07:22;;;;;;;;;25.25;25.25;;;;;22.85;62.79;100690.25;6340896;22;46416;-79
2022/08/17 10:10:01;;;;;;;;;27.50;26.75;;;;;22.89;62.41;100697.16;6312672;22;45567;-79
2022/08/17 10:12:45;;;;;;;;;25.25;22.25;;;;;22.99;62.45;100707.41;6313144;22;45298;-79
2022/08/17 10:15:30;;;;;;;;;23.50;21.25;;;;;23.02;62.36;100701.88;6341161;22;45364;-80
2022/08/17 10:18:14;;;;;;;;;20.25;20.25;;;;;23.08;62.40;100705.06;6341233;22;45227;-80
2022/08/17 10:26:11;;;;;;;;;20.50;19.75;;;;;23.01;62.21;100706.38;6313296;22;46099;-80
2022/08/17 10:26:39;;;;;;;;;21.00;20.00;;;;;23.05;62.25;100704.41;6340366;22;45240;-81
2022/08/17 10:29:32;;;;;;;;;16.50;16.25;;;;;23.06;62.32;100715.03;6306150;22;47790;-80
2022/08/17 10:32:04;;;;;;;;;25.25;21.50;;;;;23.06;62.18;100720.41;6309647;22;45501;-80
2022/08/17 10:34:57;;;;;;;;;30.75;28.25;;;;;23.07;62.53;100723.97;6310451;22;45386;-80
2022/08/17 10:37:29;;;;;;;;;31.00;28.00;;;;;23.09;62.22;100720.25;6338002;22;45452;-80
2022/08/17 10:40:34;;;;;;;;;27.00;27.00;;;;;23.08;62.24;100715.81;6310669;22;47225;-79
2022/08/17 10:43:47;;;;;;;;;28.25;24.50;;;;;23.16;62.71;100718.06;6306400;22;45800;-82
2022/08/17 10:46:16;;;;;;;;;30.00;27.50;;;;;23.28;62.11;100712.03;6338835;22;45651;-82
2022/08/17 10:48:41;;;;;;;;;27.25;25.00;;;;;23.37;62.26;100710.63;6310380;22;45321;-82
2022/08/17 10:51:35;;;;;;;;;23.25;23.25;;;;;23.36;61.61;100692.75;6310665;22;47153;-80
2022/08/17 10:54:01;;;;;;;;;27.25;25.50;;;;;23.47;61.69;100692.13;6290201;22;45402;-82
2022/08/17 10:56:46;;;;;;;;;22.00;21.00;;;;;23.48;61.32;100680.44;6310674;22;45811;-80
2022/08/17 10:59:34;;;;;;;;;21.25;18.25;;;;;23.60;61.30;100694.97;6335936;22;45483;-84
2022/08/17 11:02:09;;;;;;;;;24.50;23.50;;;;;23.64;61.13;100712.66;6337300;22;45404;-84
2022/08/17 11:05:00;;;;;;;;;25.25;25.25;;;;;23.60;60.78;100703.88;6310332;22;45535;-79
2022/08/17 11:07:50;;;;;;;;;21.00;18.25;;;;;23.67;61.36;100713.31;6337197;22;45374;-79
2022/08/17 11:10:22;;;;;;;;;21.75;20.75;;;;;23.75;60.59;100716.47;6342355;22;45157;-83
2022/08/17 11:13:26;;;;;;;;;16.50;16.00;;;;;23.78;60.23;100712.72;6341009;22;45484;-81
2022/08/17 11:16:16;;;;;;;;;18.50;18.50;;;;;23.82;60.32;100708.03;6311348;22;45321;-81
2022/08/17 11:19:20;;;;;;;;;16.75;16.00;;;;;23.88;60.04;100699.59;6310436;22;45140;-83
2022/08/17 11:22:04;;;;;;;;;24.25;22.50;;;;;24.01;59.47;100702.44;6268351;22;45274;-82
2022/08/17 11:24:39;;;;;;;;;29.00;27.75;;;;;24.16;59.74;100688.91;6311396;22;47636;-83
2022/08/17 11:27:17;;;;;;;;;20.50;19.50;;;;;24.47;59.18;100692.41;6339866;22;45291;-82
2022/08/17 11:29:59;;;;;;;;;26.50;25.50;;;;;24.79;59.01;100684.13;6309713;22;45224;-82
2022/08/17 11:32:40;;;;;;;;;21.75;19.25;;;;;25.23;58.26;100691.16;6338701;22;45289;-81
2022/08/17 11:35:23;;;;;;;;;20.75;18.25;;;;;25.48;57.71;100680.50;6309912;22;47900;-83
2022/08/17 11:38:04;;;;;;;;;29.75;23.00;;;;;25.84;56.74;100697.00;6336920;22;45305;-82
2022/08/17 11:41:27;;;;;;;;;22.25;21.75;;;;;26.09;55.82;100694.34;6338648;22;45246;-81
2022/08/17 11:44:07;;;;;;;;;23.75;22.50;;;;;26.26;54.52;100689.59;6211272;22;45467;-81
2022/08/17 11:52:59;;;;;;;;;26.25;25.00;;;;;27.17;53.59;100705.63;6339626;22;45220;-81
2022/08/17 11:55:27;;;;;;;;;26.25;23.25;;;;;27.42;53.13;100696.53;6339155;22;45394;-80
2022/08/17 11:58:03;;;;;;;;;32.25;27.50;;;;;27.62;52.42;100701.28;6338566;22;45545;-80
2022/08/17 12:00:43;;;;;;;;;24.50;23.00;;;;;27.83;52.41;100704.25;6304120;22;45600;-81
2022/08/17 12:03:22;;;;;;;;;22.25;21.75;;;;;27.76;51.39;100702.94;6305830;22;45291;-82
2022/08/17 12:05:52;;;;;;;;;23.00;22.00;;;;;27.52;51.23;100704.81;6304554;22;45262;-82
2022/08/17 12:08:21;;;;;;;;;23.00;23.00;;;;;27.11;51.41;100712.31;6305867;22;45980;-82